createdAt,value
2023-04-06T00:01:17.915Z,3.00
2023-04-06T00:03:46.441Z,2.80
2023-04-06T00:06:17.078Z,2.40
2023-04-06T00:08:45.679Z,2.30
2023-04-06T00:11:13.763Z,2.20
2023-04-06T00:13:41.973Z,2.10
2023-04-06T00:16:10.617Z,2.30
2023-04-06T00:18:39.050Z,2.60
2023-04-06T00:21:07.254Z,2.70
2023-04-06T00:23:36.851Z,2.50
2023-04-06T00:26:05.057Z,2.70
2023-04-06T00:28:33.449Z,2.70
2023-04-06T00:31:01.875Z,2.30
2023-04-06T00:33:30.157Z,2.20
2023-04-06T00:36:02.322Z,2.20
2023-04-06T00:38:31.080Z,2.20
2023-04-06T00:41:00.846Z,2.30
2023-04-06T00:43:29.079Z,2.40
2023-04-06T00:45:57.717Z,2.60
2023-04-06T00:48:27.245Z,2.70
2023-04-06T00:50:55.411Z,2.60
2023-04-06T00:53:23.985Z,2.60
2023-04-06T00:55:53.982Z,2.50
2023-04-06T00:58:26.593Z,2.50
2023-04-06T01:01:03.772Z,2.30
2023-04-06T01:03:31.873Z,2.30
2023-04-06T01:06:00.280Z,2.40
2023-04-06T01:08:36.914Z,2.50
2023-04-06T01:11:31.088Z,2.50
2023-04-06T01:14:01.233Z,2.00
2023-04-06T01:16:59.975Z,1.80
2023-04-06T01:19:31.459Z,1.70
2023-04-06T01:22:00.514Z,1.60
2023-04-06T01:24:32.687Z,1.80
2023-04-06T01:27:07.710Z,1.80
2023-04-06T01:29:50.998Z,1.90
2023-04-06T01:32:33.269Z,1.80
2023-04-06T01:35:02.049Z,1.70
2023-04-06T01:37:33.585Z,1.80
2023-04-06T01:40:10.179Z,2.10
2023-04-06T01:42:45.766Z,2.30
2023-04-06T01:45:19.496Z,2.00
2023-04-06T01:47:48.669Z,2.10
2023-04-06T01:50:18.296Z,2.10
2023-04-06T01:52:49.713Z,2.20
2023-04-06T01:55:19.563Z,1.80
2023-04-06T01:58:05.530Z,1.80
2023-04-06T02:00:39.892Z,1.90
2023-04-06T02:03:08.405Z,2.10
2023-04-06T02:05:39.091Z,2.00
2023-04-06T02:08:19.616Z,2.10
2023-04-06T02:10:49.756Z,1.90
2023-04-06T02:13:27.445Z,1.80
2023-04-06T02:15:58.187Z,1.70
2023-04-06T02:18:34.785Z,1.60
2023-04-06T02:21:12.883Z,1.50
2023-04-06T02:23:41.775Z,1.80
2023-04-06T02:26:12.290Z,1.60
2023-04-06T02:28:41.150Z,1.50
2023-04-06T02:31:10.293Z,1.50
2023-04-06T02:33:40.824Z,1.50
2023-04-06T02:36:14.753Z,1.60
2023-04-06T02:38:43.145Z,1.50
2023-04-06T02:41:12.811Z,1.40
2023-04-06T02:43:41.726Z,1.30
2023-04-06T02:46:20.128Z,1.30
2023-04-06T02:48:48.793Z,1.40
2023-04-06T02:51:17.097Z,1.60
2023-04-06T02:53:50.624Z,1.40
2023-04-06T02:56:21.918Z,1.30
2023-04-06T02:58:52.618Z,1.30
2023-04-06T03:01:23.360Z,1.50
2023-04-06T03:03:57.820Z,1.60
2023-04-06T03:06:28.557Z,1.60
2023-04-06T03:09:01.764Z,1.80
2023-04-06T03:11:31.598Z,1.70
2023-04-06T03:14:00.198Z,1.60
2023-04-06T03:16:28.494Z,1.60
2023-04-06T03:18:56.842Z,1.70
2023-04-06T03:21:25.389Z,1.50
2023-04-06T03:23:56.363Z,1.60
2023-04-06T03:26:24.470Z,1.20
2023-04-06T03:28:55.482Z,0.90
2023-04-06T03:31:28.630Z,0.90
2023-04-06T03:34:01.348Z,1.20
2023-04-06T03:36:33.748Z,1.20
2023-04-06T03:39:03.076Z,1.10
2023-04-06T03:41:34.434Z,1.30
2023-04-06T03:44:14.965Z,1.40
2023-04-06T03:46:45.745Z,1.20
2023-04-06T03:49:14.136Z,1.00
2023-04-06T03:51:46.220Z,1.00
2023-04-06T03:54:14.422Z,1.20
2023-04-06T03:56:42.519Z,1.30
2023-04-06T03:59:11.196Z,1.30
2023-04-06T04:01:41.240Z,1.50
2023-04-06T04:04:09.536Z,1.50
2023-04-06T04:06:38.379Z,1.50
2023-04-06T04:09:08.459Z,1.60
2023-04-06T04:11:36.932Z,1.50
2023-04-06T04:14:05.255Z,1.40
2023-04-06T04:16:33.876Z,1.60
2023-04-06T04:19:03.421Z,1.30
2023-04-06T04:21:32.520Z,0.70
2023-04-06T04:24:05.097Z,0.60
2023-04-06T04:26:36.619Z,0.70
2023-04-06T04:29:05.172Z,1.00
2023-04-06T04:31:33.433Z,1.20
2023-04-06T04:34:07.857Z,1.30
2023-04-06T04:36:36.536Z,1.30
2023-04-06T04:39:09.021Z,1.30
2023-04-06T04:41:42.041Z,1.20
2023-04-06T04:44:13.121Z,1.20
2023-04-06T04:46:42.482Z,1.00
2023-04-06T04:49:13.716Z,1.10
2023-04-06T04:51:43.355Z,1.20
2023-04-06T04:54:20.028Z,1.10
2023-04-06T04:56:48.244Z,1.10
2023-04-06T04:59:39.822Z,0.60
2023-04-06T05:02:18.504Z,0.40
2023-04-06T05:05:01.070Z,0.50
2023-04-06T05:07:30.835Z,0.60
2023-04-06T05:10:01.766Z,0.60
2023-04-06T05:12:34.750Z,0.70
2023-04-06T05:15:09.357Z,0.90
2023-04-06T05:17:37.713Z,0.90
2023-04-06T05:20:09.571Z,0.80
2023-04-06T05:22:45.880Z,1.00
2023-04-06T05:25:14.847Z,1.10
2023-04-06T05:27:43.503Z,1.10
2023-04-06T05:30:28.962Z,1.00
2023-04-06T05:32:57.768Z,0.60
2023-04-06T05:35:31.020Z,0.40
2023-04-06T05:38:03.846Z,0.50
2023-04-06T05:40:32.066Z,0.80
2023-04-06T05:43:00.733Z,1.10
2023-04-06T05:45:29.156Z,1.10
2023-04-06T05:47:59.026Z,1.10
2023-04-06T05:50:32.043Z,1.30
2023-04-06T05:53:00.749Z,1.40
2023-04-06T05:55:34.984Z,1.50
2023-04-06T05:58:19.214Z,1.60
2023-04-06T06:00:50.675Z,1.70
2023-04-06T06:03:21.823Z,1.70
2023-04-06T06:05:55.609Z,1.70
2023-04-06T06:08:31.622Z,1.60
2023-04-06T06:11:04.035Z,1.60
2023-04-06T06:13:32.896Z,1.70
2023-04-06T06:16:06.181Z,1.80
2023-04-06T06:18:38.245Z,1.80
2023-04-06T06:21:07.836Z,1.90
2023-04-06T06:23:36.538Z,2.00
2023-04-06T06:26:05.302Z,2.20
2023-04-06T06:28:34.111Z,2.30
2023-04-06T06:31:03.354Z,2.70
2023-04-06T06:33:32.764Z,3.40
2023-04-06T06:36:01.423Z,3.80
2023-04-06T06:38:31.070Z,4.00
2023-04-06T06:40:59.957Z,4.60
2023-04-06T06:43:31.744Z,4.80
2023-04-06T06:46:03.701Z,5.10
2023-04-06T06:48:32.070Z,5.60
2023-04-06T06:51:00.592Z,5.70
2023-04-06T06:53:29.383Z,5.70
2023-04-06T06:55:59.889Z,5.20
2023-04-06T06:58:28.631Z,4.90
2023-04-06T07:00:58.149Z,4.60
2023-04-06T07:03:26.810Z,4.80
2023-04-06T07:05:56.050Z,4.70
2023-04-06T07:08:26.674Z,4.70
2023-04-06T07:10:57.127Z,5.10
2023-04-06T07:13:28.449Z,4.90
2023-04-06T07:15:59.408Z,5.20
2023-04-06T07:18:27.633Z,5.50
2023-04-06T07:20:55.963Z,5.80
2023-04-06T07:23:24.024Z,5.70
2023-04-06T07:25:54.848Z,6.10
2023-04-06T07:28:23.238Z,6.30
2023-04-06T07:30:52.971Z,6.60
2023-04-06T07:33:21.210Z,7.30
2023-04-06T07:35:49.829Z,7.70
2023-04-06T07:38:18.206Z,7.80
2023-04-06T07:40:46.668Z,7.60
2023-04-06T07:43:17.378Z,7.70
2023-04-06T07:45:45.684Z,8.10
2023-04-06T07:48:17.633Z,7.90
2023-04-06T07:50:46.626Z,7.80
2023-04-06T07:53:16.892Z,8.20
2023-04-06T07:55:47.085Z,8.70
2023-04-06T07:58:15.211Z,8.60
2023-04-06T08:00:43.345Z,8.40
2023-04-06T08:03:12.172Z,8.40
2023-04-06T08:05:42.014Z,8.20
2023-04-06T08:08:10.579Z,8.40
2023-04-06T08:10:38.989Z,8.50
2023-04-06T08:13:07.259Z,8.80
2023-04-06T08:15:35.452Z,8.80
2023-04-06T08:18:03.777Z,8.80
2023-04-06T08:20:32.000Z,9.10
2023-04-06T08:23:02.269Z,9.40
2023-04-06T08:25:30.762Z,9.20
2023-04-06T08:27:58.874Z,9.20
2023-04-06T08:30:27.267Z,9.60
2023-04-06T08:32:55.473Z,9.90
2023-04-06T08:35:23.737Z,9.70
2023-04-06T08:37:53.171Z,9.90
2023-04-06T08:40:22.633Z,9.80
2023-04-06T08:42:52.020Z,9.90
2023-04-06T08:45:22.259Z,10.10
2023-04-06T08:47:51.142Z,10.30
2023-04-06T08:50:19.954Z,10.40
2023-04-06T08:52:49.152Z,10.60
2023-04-06T08:55:19.996Z,10.90
2023-04-06T08:57:49.824Z,10.70
2023-04-06T09:00:18.750Z,10.70
2023-04-06T09:02:47.808Z,10.70
2023-04-06T09:05:16.227Z,11.00
2023-04-06T09:07:44.444Z,11.20
2023-04-06T09:10:12.673Z,11.30
2023-04-06T09:12:41.729Z,11.40
2023-04-06T09:15:21.530Z,11.80
2023-04-06T09:17:52.911Z,11.70
2023-04-06T09:20:26.479Z,11.80
2023-04-06T09:22:54.907Z,11.60
2023-04-06T09:25:23.849Z,11.80
2023-04-06T09:28:01.188Z,11.80
2023-04-06T09:30:30.972Z,11.80
2023-04-06T09:33:00.468Z,12.00
2023-04-06T09:35:31.372Z,12.10
2023-04-06T09:37:59.686Z,12.30
2023-04-06T09:40:30.250Z,12.40
2023-04-06T09:43:00.418Z,12.50
2023-04-06T09:45:31.526Z,12.20
2023-04-06T09:48:00.131Z,12.50
2023-04-06T09:50:28.780Z,12.70
2023-04-06T09:52:58.440Z,12.60
2023-04-06T09:55:29.508Z,12.80
2023-04-06T09:58:00.134Z,13.10
2023-04-06T10:00:29.234Z,13.10
2023-04-06T10:03:06.385Z,12.80
2023-04-06T10:05:39.678Z,13.10
2023-04-06T10:08:11.128Z,13.00
2023-04-06T10:10:39.400Z,13.20
2023-04-06T10:13:08.205Z,13.30
2023-04-06T10:15:36.540Z,13.50
2023-04-06T10:18:08.639Z,13.80
2023-04-06T10:20:41.171Z,13.80
2023-04-06T10:23:15.276Z,13.70
2023-04-06T10:25:53.918Z,13.60
2023-04-06T10:28:22.854Z,13.20
2023-04-06T10:30:51.244Z,13.70
2023-04-06T10:33:21.606Z,14.00
2023-04-06T10:35:49.781Z,14.10
2023-04-06T10:38:22.742Z,13.70
2023-04-06T10:40:50.933Z,13.60
2023-04-06T10:43:21.072Z,13.70
2023-04-06T10:45:56.953Z,13.70
2023-04-06T10:48:28.054Z,13.80
2023-04-06T10:50:56.351Z,14.00
2023-04-06T10:53:25.534Z,14.00
2023-04-06T10:55:55.102Z,14.40
2023-04-06T10:58:26.581Z,14.00
2023-04-06T11:00:56.124Z,14.00
2023-04-06T11:03:25.926Z,13.90
2023-04-06T11:05:54.052Z,14.00
2023-04-06T11:08:27.024Z,13.90
2023-04-06T11:11:05.979Z,13.90
2023-04-06T11:13:39.302Z,14.10
2023-04-06T11:16:07.559Z,14.10
2023-04-06T11:18:37.784Z,14.30
2023-04-06T11:21:06.145Z,14.40
2023-04-06T11:23:34.639Z,14.40
2023-04-06T11:26:03.605Z,14.50
2023-04-06T11:28:31.998Z,14.60
2023-04-06T11:31:01.423Z,14.50
2023-04-06T11:33:31.390Z,14.80
2023-04-06T11:36:01.657Z,14.70
2023-04-06T11:38:29.988Z,14.60
2023-04-06T11:40:58.258Z,15.00
2023-04-06T11:43:29.966Z,14.70
2023-04-06T11:46:05.261Z,14.60
2023-04-06T11:48:33.494Z,14.70
2023-04-06T11:51:06.014Z,14.30
2023-04-06T11:53:34.523Z,14.40
2023-04-06T11:56:02.640Z,14.40
2023-04-06T11:58:33.159Z,14.40
2023-04-06T12:01:07.270Z,14.60
2023-04-06T12:03:35.839Z,14.50
2023-04-06T12:06:05.909Z,14.80
2023-04-06T12:08:34.221Z,14.50
2023-04-06T12:11:03.526Z,14.40
2023-04-06T12:13:31.669Z,14.30
2023-04-06T12:15:59.817Z,14.70
2023-04-06T12:18:28.902Z,14.50
2023-04-06T12:20:57.094Z,14.70
2023-04-06T12:23:26.814Z,14.90
2023-04-06T12:25:55.741Z,15.20
2023-04-06T12:28:28.038Z,15.00
2023-04-06T12:30:57.104Z,15.10
2023-04-06T12:33:26.260Z,14.40
2023-04-06T12:35:58.716Z,14.40
2023-04-06T12:38:31.333Z,14.50
2023-04-06T12:40:59.469Z,14.70
2023-04-06T12:43:27.794Z,14.80
2023-04-06T12:45:57.024Z,15.00
2023-04-06T12:48:25.715Z,15.30
2023-04-06T12:50:56.594Z,15.10
2023-04-06T12:53:26.756Z,15.40
2023-04-06T12:55:57.247Z,15.50
2023-04-06T12:58:27.708Z,15.40
2023-04-06T13:00:57.034Z,15.20
2023-04-06T13:03:25.423Z,15.20
2023-04-06T13:05:53.634Z,15.00
2023-04-06T13:08:22.096Z,15.00
2023-04-06T13:10:51.722Z,15.30
2023-04-06T13:13:25.133Z,15.40
2023-04-06T13:15:53.809Z,15.30
2023-04-06T13:18:23.736Z,15.40
2023-04-06T13:20:52.041Z,15.20
2023-04-06T13:23:20.520Z,14.90
2023-04-06T13:25:48.708Z,14.80
2023-04-06T13:28:16.818Z,15.20
2023-04-06T13:30:50.047Z,14.90
2023-04-06T13:33:18.216Z,14.70
2023-04-06T13:35:46.660Z,14.80
2023-04-06T13:38:14.781Z,14.70
2023-04-06T13:40:43.276Z,14.70
2023-04-06T13:43:12.878Z,14.60
2023-04-06T13:45:41.929Z,14.50
2023-04-06T13:48:11.484Z,14.50
2023-04-06T13:50:41.709Z,14.70
2023-04-06T13:53:09.817Z,14.70
2023-04-06T13:55:39.243Z,14.70
2023-04-06T13:58:09.485Z,14.70
2023-04-06T14:00:37.881Z,14.70
2023-04-06T14:03:08.504Z,14.80
2023-04-06T14:05:38.109Z,14.90
2023-04-06T14:08:06.257Z,14.90
2023-04-06T14:10:41.270Z,15.00
2023-04-06T14:13:09.802Z,15.00
2023-04-06T14:15:39.094Z,15.10
2023-04-06T14:18:07.736Z,15.00
2023-04-06T14:20:36.070Z,14.80
2023-04-06T14:23:06.005Z,14.90
2023-04-06T14:25:35.663Z,15.00
2023-04-06T14:28:04.047Z,15.00
2023-04-06T14:30:32.578Z,15.10
2023-04-06T14:33:01.398Z,14.90
2023-04-06T14:35:33.354Z,14.70
2023-04-06T14:38:02.511Z,14.90
2023-04-06T14:40:31.959Z,14.90
2023-04-06T14:43:00.057Z,14.80
2023-04-06T14:45:28.101Z,14.90
2023-04-06T14:47:56.245Z,14.90
2023-04-06T14:50:24.314Z,15.00
2023-04-06T14:52:52.776Z,15.00
2023-04-06T14:55:20.853Z,14.90
2023-04-06T14:57:55.462Z,14.90
2023-04-06T15:00:23.610Z,14.80
2023-04-06T15:02:51.743Z,14.70
2023-04-06T15:05:23.106Z,14.70
2023-04-06T15:07:51.686Z,14.70
2023-04-06T15:10:19.913Z,14.60
2023-04-06T15:12:47.997Z,14.50
2023-04-06T15:15:17.907Z,14.60
2023-04-06T15:17:46.816Z,14.60
2023-04-06T15:20:19.917Z,14.50
2023-04-06T15:22:48.574Z,14.40
2023-04-06T15:25:16.791Z,14.30
2023-04-06T15:27:45.480Z,14.40
2023-04-06T15:30:17.930Z,14.40
2023-04-06T15:32:53.263Z,14.40
2023-04-06T15:35:21.567Z,14.40
2023-04-06T15:37:50.417Z,14.30
2023-04-06T15:40:18.782Z,14.30
2023-04-06T15:42:47.008Z,14.10
2023-04-06T15:45:15.557Z,14.00
2023-04-06T15:47:46.383Z,14.00
2023-04-06T15:50:15.432Z,14.10
2023-04-06T15:52:43.578Z,14.10
2023-04-06T15:55:21.181Z,14.10
2023-04-06T15:57:50.022Z,14.10
2023-04-06T16:00:18.861Z,14.20
2023-04-06T16:02:48.486Z,14.20
2023-04-06T16:05:16.715Z,14.20
2023-04-06T16:07:45.588Z,14.00
2023-04-06T16:10:13.686Z,13.90
2023-04-06T16:12:43.861Z,13.80
2023-04-06T16:15:12.412Z,13.80
2023-04-06T16:17:44.456Z,13.70
2023-04-06T16:20:15.776Z,13.90
2023-04-06T16:22:43.999Z,13.80
2023-04-06T16:25:12.710Z,13.90
2023-04-06T16:27:41.558Z,13.80
2023-04-06T16:30:10.650Z,13.70
2023-04-06T16:32:43.219Z,13.60
2023-04-06T16:35:12.333Z,13.60
2023-04-06T16:37:41.945Z,13.60
2023-04-06T16:40:10.964Z,13.70
2023-04-06T16:42:39.098Z,13.70
2023-04-06T16:45:09.224Z,13.70
2023-04-06T16:47:37.426Z,13.60
2023-04-06T16:50:06.451Z,13.50
2023-04-06T16:52:34.893Z,13.40
2023-04-06T16:55:04.787Z,13.30
2023-04-06T16:57:33.874Z,13.20
2023-04-06T17:00:03.227Z,13.20
2023-04-06T17:02:32.400Z,13.20
2023-04-06T17:05:01.836Z,13.10
2023-04-06T17:07:32.831Z,13.10
2023-04-06T17:10:02.360Z,13.00
2023-04-06T17:12:32.080Z,13.00
2023-04-06T17:15:00.324Z,13.00
2023-04-06T17:17:28.993Z,12.90
2023-04-06T17:19:57.209Z,12.80
2023-04-06T17:22:25.404Z,12.80
2023-04-06T17:24:53.527Z,12.80
2023-04-06T17:27:26.580Z,12.80
2023-04-06T17:29:56.295Z,12.60
2023-04-06T17:32:24.771Z,12.60
2023-04-06T17:34:56.445Z,12.60
2023-04-06T17:37:24.526Z,12.50
2023-04-06T17:39:52.568Z,12.60
2023-04-06T17:42:20.575Z,12.50
2023-04-06T17:44:52.474Z,12.40
2023-04-06T17:47:22.677Z,12.20
2023-04-06T17:49:52.299Z,12.20
2023-04-06T17:52:20.385Z,12.30
2023-04-06T17:54:52.892Z,12.20
2023-04-06T17:57:21.171Z,12.00
2023-04-06T17:59:49.483Z,11.90
2023-04-06T18:02:17.616Z,11.80
2023-04-06T18:04:47.249Z,11.90
2023-04-06T18:07:15.478Z,12.00
2023-04-06T18:09:43.894Z,11.70
2023-04-06T18:12:11.985Z,11.80
2023-04-06T18:14:40.090Z,11.70
2023-04-06T18:17:08.259Z,11.60
2023-04-06T18:19:36.537Z,11.50
2023-04-06T18:22:06.026Z,11.50
2023-04-06T18:24:41.913Z,11.50
2023-04-06T18:27:10.578Z,11.20
2023-04-06T18:29:38.660Z,11.20
2023-04-06T18:32:07.303Z,11.40
2023-04-06T18:34:36.090Z,11.40
2023-04-06T18:37:04.171Z,11.50
2023-04-06T18:39:33.641Z,11.50
2023-04-06T18:42:04.026Z,11.60
2023-04-06T18:44:32.331Z,11.50
2023-04-06T18:47:00.810Z,11.40
2023-04-06T18:49:31.904Z,11.30
2023-04-06T18:51:59.993Z,11.30
2023-04-06T18:54:28.190Z,11.30
2023-04-06T18:56:59.362Z,11.20
2023-04-06T18:59:30.193Z,11.30
2023-04-06T19:01:59.354Z,11.10
2023-04-06T19:04:29.339Z,11.10
2023-04-06T19:06:57.661Z,11.20
2023-04-06T19:09:26.428Z,11.10
2023-04-06T19:11:54.506Z,11.20
2023-04-06T19:14:23.886Z,11.20
2023-04-06T19:16:54.401Z,11.30
2023-04-06T19:19:22.569Z,11.20
2023-04-06T19:21:53.164Z,11.20
2023-04-06T19:24:21.381Z,11.20
2023-04-06T19:26:49.538Z,11.20
2023-04-06T19:29:18.447Z,11.20
2023-04-06T19:31:48.205Z,11.10
2023-04-06T19:34:17.832Z,11.00
2023-04-06T19:36:46.582Z,10.90
2023-04-06T19:39:16.648Z,10.80
2023-04-06T19:41:44.729Z,10.60
2023-04-06T19:44:13.454Z,10.70
2023-04-06T19:46:42.430Z,10.70
2023-04-06T19:49:12.096Z,10.50
2023-04-06T19:51:40.162Z,10.50
2023-04-06T19:54:08.242Z,10.40
2023-04-06T19:56:36.475Z,10.40
2023-04-06T19:59:04.714Z,10.30
2023-04-06T20:01:32.892Z,10.20
2023-04-06T20:04:01.599Z,10.20
2023-04-06T20:06:32.713Z,10.30
2023-04-06T20:09:01.005Z,10.20
2023-04-06T20:11:29.533Z,10.10
2023-04-06T20:13:57.720Z,10.00
2023-04-06T20:16:25.832Z,9.90
2023-04-06T20:18:55.951Z,9.80
2023-04-06T20:21:23.970Z,9.80
2023-04-06T20:23:53.426Z,9.60
2023-04-06T20:26:21.545Z,9.60
2023-04-06T20:28:49.682Z,9.70
2023-04-06T20:31:17.883Z,9.70
2023-04-06T20:33:45.930Z,9.60
2023-04-06T20:36:13.930Z,9.70
2023-04-06T20:38:42.010Z,9.60
2023-04-06T20:41:11.651Z,9.50
2023-04-06T20:43:39.792Z,9.40
2023-04-06T20:46:09.310Z,9.50
2023-04-06T20:48:38.284Z,9.40
2023-04-06T20:51:06.476Z,9.30
2023-04-06T20:53:34.681Z,9.30
2023-04-06T20:56:03.210Z,9.40
2023-04-06T20:58:32.603Z,9.30
2023-04-06T21:01:00.614Z,9.40
2023-04-06T21:03:29.578Z,9.50
2023-04-06T21:05:58.301Z,9.50
2023-04-06T21:08:26.497Z,9.50
2023-04-06T21:10:54.499Z,9.50
2023-04-06T21:13:22.550Z,9.70
2023-04-06T21:15:52.028Z,9.70
2023-04-06T21:18:20.817Z,9.60
2023-04-06T21:20:48.998Z,9.60
2023-04-06T21:23:17.251Z,9.50
2023-04-06T21:25:45.672Z,9.40
2023-04-06T21:28:13.744Z,9.30
2023-04-06T21:30:42.393Z,9.20
2023-04-06T21:33:12.967Z,9.20
2023-04-06T21:35:41.365Z,9.10
2023-04-06T21:38:09.819Z,9.10
2023-04-06T21:40:37.930Z,8.80
2023-04-06T21:43:06.116Z,8.80
2023-04-06T21:45:34.074Z,8.60
2023-04-06T21:48:02.216Z,8.70
2023-04-06T21:50:32.521Z,8.70
2023-04-06T21:53:00.608Z,9.00
2023-04-06T21:55:28.658Z,8.90
2023-04-06T21:57:57.219Z,8.90
2023-04-06T22:00:25.287Z,9.10
2023-04-06T22:02:54.511Z,9.10
2023-04-06T22:05:22.859Z,9.00
2023-04-06T22:07:52.314Z,9.20
2023-04-06T22:10:20.416Z,9.20
2023-04-06T22:12:50.345Z,9.00
2023-04-06T22:15:18.906Z,9.10
2023-04-06T22:17:48.459Z,9.00
2023-04-06T22:20:16.811Z,8.90
2023-04-06T22:22:44.971Z,8.90
2023-04-06T22:25:14.446Z,8.90
2023-04-06T22:27:43.128Z,8.80
2023-04-06T22:30:11.782Z,8.80
2023-04-06T22:32:39.865Z,8.80
2023-04-06T22:35:09.096Z,8.60
2023-04-06T22:37:37.235Z,8.50
2023-04-06T22:40:06.035Z,8.60
2023-04-06T22:42:35.483Z,8.50
2023-04-06T22:45:03.577Z,8.60
2023-04-06T22:47:32.069Z,8.50
2023-04-06T22:50:00.243Z,8.50
2023-04-06T22:52:28.229Z,8.40
2023-04-06T22:54:56.476Z,8.40
2023-04-06T22:57:24.506Z,8.40
2023-04-06T22:59:53.928Z,8.40
2023-04-06T23:02:22.214Z,8.40
2023-04-06T23:04:50.283Z,8.40
2023-04-06T23:07:18.314Z,8.30
2023-04-06T23:09:47.000Z,8.30
2023-04-06T23:12:16.240Z,8.40
2023-04-06T23:14:44.419Z,8.40
2023-04-06T23:17:15.051Z,8.40
2023-04-06T23:19:43.005Z,8.40
2023-04-06T23:22:11.312Z,8.50
2023-04-06T23:24:39.340Z,8.60
2023-04-06T23:27:07.385Z,8.60
2023-04-06T23:29:35.484Z,8.60
2023-04-06T23:32:03.549Z,8.60
2023-04-06T23:34:33.858Z,8.50
2023-04-06T23:37:03.211Z,8.50
2023-04-06T23:39:31.413Z,8.50
2023-04-06T23:41:59.470Z,8.40
2023-04-06T23:44:29.989Z,8.50
2023-04-06T23:46:57.995Z,8.50
2023-04-06T23:49:26.136Z,8.50
2023-04-06T23:51:55.586Z,8.70
2023-04-06T23:54:23.607Z,8.80
2023-04-06T23:56:52.014Z,8.70
2023-04-06T23:59:20.436Z,8.70
